sensor_id;sensor_type;location;lat;lon;timestamp;pressure;altitude;pressure_sealevel;temperature;humidity
9277;BME280;4676;42.678;23.244;2022-12-11T00:02:17;92072.69;;;9.91;nan
9277;BME280;4676;42.678;23.244;2022-12-11T00:04:44;92093.44;;;9.84;nan
9277;BME280;4676;42.678;23.244;2022-12-11T00:07:12;92078.59;;;9.79;nan
9277;BME280;4676;42.678;23.244;2022-12-11T00:09:39;92054.25;;;9.89;nan
9277;BME280;4676;42.678;23.244;2022-12-11T00:12:06;92055.19;;;9.88;nan
9277;BME280;4676;42.678;23.244;2022-12-11T00:14:33;92059.09;;;9.69;nan
9277;BME280;4676;42.678;23.244;2022-12-11T00:16:59;92043.34;;;9.89;nan
9277;BME280;4676;42.678;23.244;2022-12-11T00:19:26;92095.47;;;9.91;nan
9277;BME280;4676;42.678;23.244;2022-12-11T00:21:53;92077.31;;;9.97;nan
9277;BME280;4676;42.678;23.244;2022-12-11T00:24:21;92052.97;;;10.08;nan
9277;BME280;4676;42.678;23.244;2022-12-11T00:26:47;92076.88;;;10.16;nan
9277;BME280;4676;42.678;23.244;2022-12-11T00:29:14;92052.97;;;10.20;nan
9277;BME280;4676;42.678;23.244;2022-12-11T00:31:41;92050.22;;;10.23;nan
9277;BME280;4676;42.678;23.244;2022-12-11T00:34:09;92059.53;;;10.10;nan
9277;BME280;4676;42.678;23.244;2022-12-11T00:36:36;92032.41;;;10.12;nan
9277;BME280;4676;42.678;23.244;2022-12-11T00:39:03;92047.47;;;10.14;nan
9277;BME280;4676;42.678;23.244;2022-12-11T00:41:32;92022.69;;;10.19;nan
9277;BME280;4676;42.678;23.244;2022-12-11T00:43:58;92037.69;;;10.09;nan
9277;BME280;4676;42.678;23.244;2022-12-11T00:46:25;92043.88;;;10.05;nan
9277;BME280;4676;42.678;23.244;2022-12-11T00:48:52;92045.59;;;10.04;nan
9277;BME280;4676;42.678;23.244;2022-12-11T00:51:18;92062.41;;;10.06;nan
9277;BME280;4676;42.678;23.244;2022-12-11T00:53:45;92036.56;;;10.13;nan
9277;BME280;4676;42.678;23.244;2022-12-11T00:56:14;92044.56;;;10.07;nan
9277;BME280;4676;42.678;23.244;2022-12-11T00:58:43;92056.84;;;10.00;nan
9277;BME280;4676;42.678;23.244;2022-12-11T01:01:15;92034.91;;;10.01;nan
9277;BME280;4676;42.678;23.244;2022-12-11T01:03:42;92047.91;;;10.08;nan
9277;BME280;4676;42.678;23.244;2022-12-11T01:06:12;92067.19;;;9.97;nan
9277;BME280;4676;42.678;23.244;2022-12-11T01:08:39;92058.25;;;10.04;nan
9277;BME280;4676;42.678;23.244;2022-12-11T01:11:08;92037.34;;;10.14;nan
9277;BME280;4676;42.678;23.244;2022-12-11T01:13:34;92044.56;;;10.20;nan
9277;BME280;4676;42.678;23.244;2022-12-11T01:16:06;92082.41;;;10.21;nan
9277;BME280;4676;42.678;23.244;2022-12-11T01:18:33;92028.50;;;10.43;nan
9277;BME280;4676;42.678;23.244;2022-12-11T01:21:04;92065.28;;;10.60;nan
9277;BME280;4676;42.678;23.244;2022-12-11T01:23:31;92048.84;;;10.65;nan
9277;BME280;4676;42.678;23.244;2022-12-11T01:26:03;92024.69;;;10.83;nan
9277;BME280;4676;42.678;23.244;2022-12-11T01:28:30;92014.88;;;11.23;nan
9277;BME280;4676;42.678;23.244;2022-12-11T01:30:57;91984.31;;;11.47;nan
9277;BME280;4676;42.678;23.244;2022-12-11T01:33:25;91999.50;;;11.69;nan
9277;BME280;4676;42.678;23.244;2022-12-11T01:35:51;92021.28;;;11.83;nan
9277;BME280;4676;42.678;23.244;2022-12-11T01:38:18;92022.06;;;11.94;nan
9277;BME280;4676;42.678;23.244;2022-12-11T01:40:45;92031.84;;;12.10;nan
9277;BME280;4676;42.678;23.244;2022-12-11T01:43:13;92016.63;;;12.31;nan
9277;BME280;4676;42.678;23.244;2022-12-11T01:45:41;91972.97;;;12.37;nan
9277;BME280;4676;42.678;23.244;2022-12-11T01:48:11;91965.94;;;12.50;nan
9277;BME280;4676;42.678;23.244;2022-12-11T01:50:44;91968.94;;;12.55;nan
9277;BME280;4676;42.678;23.244;2022-12-11T01:53:16;91964.88;;;12.52;nan
9277;BME280;4676;42.678;23.244;2022-12-11T01:55:44;91973.56;;;12.50;nan
9277;BME280;4676;42.678;23.244;2022-12-11T01:58:12;91968.69;;;12.37;nan
9277;BME280;4676;42.678;23.244;2022-12-11T02:00:44;91968.00;;;12.35;nan
9277;BME280;4676;42.678;23.244;2022-12-11T02:03:11;91958.69;;;12.25;nan
9277;BME280;4676;42.678;23.244;2022-12-11T02:05:38;91957.38;;;12.21;nan
9277;BME280;4676;42.678;23.244;2022-12-11T02:08:06;91951.72;;;12.17;nan
9277;BME280;4676;42.678;23.244;2022-12-11T02:10:55;91961.75;;;12.19;nan
9277;BME280;4676;42.678;23.244;2022-12-11T02:13:30;91936.66;;;12.25;nan
9277;BME280;4676;42.678;23.244;2022-12-11T02:16:05;91942.75;;;12.34;nan
9277;BME280;4676;42.678;23.244;2022-12-11T02:18:40;91913.53;;;12.49;nan
9277;BME280;4676;42.678;23.244;2022-12-11T02:21:13;91892.16;;;12.51;nan
9277;BME280;4676;42.678;23.244;2022-12-11T02:24:15;91879.75;;;12.58;nan
9277;BME280;4676;42.678;23.244;2022-12-11T02:26:55;91879.75;;;12.58;nan
9277;BME280;4676;42.678;23.244;2022-12-11T02:29:33;91889.69;;;12.71;nan
9277;BME280;4676;42.678;23.244;2022-12-11T02:32:03;91885.16;;;12.74;nan
9277;BME280;4676;42.678;23.244;2022-12-11T02:34:40;91888.88;;;13.00;nan
9277;BME280;4676;42.678;23.244;2022-12-11T02:37:11;91882.59;;;13.05;nan
9277;BME280;4676;42.678;23.244;2022-12-11T02:39:42;91850.09;;;13.08;nan
9277;BME280;4676;42.678;23.244;2022-12-11T02:42:11;91858.16;;;13.13;nan
9277;BME280;4676;42.678;23.244;2022-12-11T02:44:42;91869.81;;;13.16;nan
9277;BME280;4676;42.678;23.244;2022-12-11T02:47:13;91872.38;;;13.25;nan
9277;BME280;4676;42.678;23.244;2022-12-11T02:49:42;91854.56;;;13.35;nan
9277;BME280;4676;42.678;23.244;2022-12-11T02:52:13;91865.56;;;13.35;nan
9277;BME280;4676;42.678;23.244;2022-12-11T02:54:43;91877.09;;;13.49;nan
9277;BME280;4676;42.678;23.244;2022-12-11T02:57:14;91863.56;;;13.58;nan
9277;BME280;4676;42.678;23.244;2022-12-11T02:59:45;91865.59;;;13.64;nan
9277;BME280;4676;42.678;23.244;2022-12-11T03:02:12;91871.50;;;13.65;nan
9277;BME280;4676;42.678;23.244;2022-12-11T03:04:41;91864.78;;;13.64;nan
9277;BME280;4676;42.678;23.244;2022-12-11T03:07:12;91860.88;;;13.69;nan
9277;BME280;4676;42.678;23.244;2022-12-11T03:09:41;91865.44;;;13.66;nan
9277;BME280;4676;42.678;23.244;2022-12-11T03:12:11;91849.50;;;13.64;nan
9277;BME280;4676;42.678;23.244;2022-12-11T03:14:38;91871.06;;;13.69;nan
9277;BME280;4676;42.678;23.244;2022-12-11T03:17:12;91861.97;;;13.67;nan
9277;BME280;4676;42.678;23.244;2022-12-11T03:19:46;91864.38;;;13.68;nan
9277;BME280;4676;42.678;23.244;2022-12-11T03:22:18;91864.91;;;13.72;nan
9277;BME280;4676;42.678;23.244;2022-12-11T03:24:50;91857.41;;;13.80;nan
9277;BME280;4676;42.678;23.244;2022-12-11T03:27:32;91843.09;;;13.79;nan
9277;BME280;4676;42.678;23.244;2022-12-11T03:30:04;91846.81;;;13.84;nan
9277;BME280;4676;42.678;23.244;2022-12-11T03:32:37;91862.63;;;13.88;nan
9277;BME280;4676;42.678;23.244;2022-12-11T03:35:11;91872.53;;;13.91;nan
9277;BME280;4676;42.678;23.244;2022-12-11T03:37:40;91848.69;;;13.92;nan
9277;BME280;4676;42.678;23.244;2022-12-11T03:40:11;91866.91;;;13.87;nan
9277;BME280;4676;42.678;23.244;2022-12-11T03:42:41;91894.00;;;13.88;nan
9277;BME280;4676;42.678;23.244;2022-12-11T03:45:10;91869.44;;;13.87;nan
9277;BME280;4676;42.678;23.244;2022-12-11T03:47:40;91877.25;;;13.86;nan
9277;BME280;4676;42.678;23.244;2022-12-11T03:50:10;91918.63;;;13.88;nan
9277;BME280;4676;42.678;23.244;2022-12-11T03:52:39;91908.72;;;13.85;nan
9277;BME280;4676;42.678;23.244;2022-12-11T03:55:08;91897.19;;;13.90;nan
9277;BME280;4676;42.678;23.244;2022-12-11T03:57:38;91915.00;;;13.90;nan
9277;BME280;4676;42.678;23.244;2022-12-11T04:00:06;91914.47;;;13.87;nan
9277;BME280;4676;42.678;23.244;2022-12-11T04:02:33;91949.06;;;13.89;nan
9277;BME280;4676;42.678;23.244;2022-12-11T04:05:02;91957.47;;;13.90;nan
9277;BME280;4676;42.678;23.244;2022-12-11T04:07:29;91950.25;;;13.85;nan
9277;BME280;4676;42.678;23.244;2022-12-11T04:09:56;91943.69;;;13.73;nan
9277;BME280;4676;42.678;23.244;2022-12-11T04:12:23;91979.09;;;13.86;nan
9277;BME280;4676;42.678;23.244;2022-12-11T04:14:50;91977.59;;;13.83;nan
9277;BME280;4676;42.678;23.244;2022-12-11T04:17:29;91999.44;;;13.86;nan
9277;BME280;4676;42.678;23.244;2022-12-11T04:20:15;92025.94;;;13.83;nan
9277;BME280;4676;42.678;23.244;2022-12-11T04:23:05;92028.94;;;13.88;nan
9277;BME280;4676;42.678;23.244;2022-12-11T04:25:49;92023.13;;;13.86;nan
9277;BME280;4676;42.678;23.244;2022-12-11T04:28:16;92041.78;;;13.87;nan
9277;BME280;4676;42.678;23.244;2022-12-11T04:30:47;92041.78;;;13.87;nan
9277;BME280;4676;42.678;23.244;2022-12-11T04:33:14;92050.91;;;13.89;nan
9277;BME280;4676;42.678;23.244;2022-12-11T04:35:42;92048.38;;;13.89;nan
9277;BME280;4676;42.678;23.244;2022-12-11T04:38:09;92070.75;;;13.86;nan
9277;BME280;4676;42.678;23.244;2022-12-11T04:40:36;92058.78;;;13.86;nan
9277;BME280;4676;42.678;23.244;2022-12-11T04:43:03;92077.84;;;13.92;nan
9277;BME280;4676;42.678;23.244;2022-12-11T04:45:29;92092.97;;;13.84;nan
9277;BME280;4676;42.678;23.244;2022-12-11T04:47:56;92113.59;;;13.81;nan
9277;BME280;4676;42.678;23.244;2022-12-11T04:50:24;92088.38;;;13.78;nan
9277;BME280;4676;42.678;23.244;2022-12-11T04:52:54;92078.31;;;13.76;nan
9277;BME280;4676;42.678;23.244;2022-12-11T04:55:21;92097.88;;;13.76;nan
9277;BME280;4676;42.678;23.244;2022-12-11T04:57:48;92102.31;;;13.74;nan
9277;BME280;4676;42.678;23.244;2022-12-11T05:00:15;92096.41;;;13.73;nan
9277;BME280;4676;42.678;23.244;2022-12-11T05:02:42;92101.38;;;13.75;nan
9277;BME280;4676;42.678;23.244;2022-12-11T05:05:09;92096.03;;;13.78;nan
9277;BME280;4676;42.678;23.244;2022-12-11T05:07:37;92077.41;;;13.77;nan
9277;BME280;4676;42.678;23.244;2022-12-11T05:10:06;92072.84;;;13.71;nan
9277;BME280;4676;42.678;23.244;2022-12-11T05:12:33;92069.47;;;13.71;nan
9277;BME280;4676;42.678;23.244;2022-12-11T05:15:00;92062.38;;;13.65;nan
9277;BME280;4676;42.678;23.244;2022-12-11T05:17:26;92070.13;;;13.63;nan
9277;BME280;4676;42.678;23.244;2022-12-11T05:19:53;92068.50;;;13.62;nan
9277;BME280;4676;42.678;23.244;2022-12-11T05:22:20;92061.56;;;13.64;nan
9277;BME280;4676;42.678;23.244;2022-12-11T05:24:46;92073.03;;;13.59;nan
9277;BME280;4676;42.678;23.244;2022-12-11T05:27:14;92069.81;;;13.57;nan
9277;BME280;4676;42.678;23.244;2022-12-11T05:29:41;92050.78;;;13.51;nan
9277;BME280;4676;42.678;23.244;2022-12-11T05:32:08;92035.81;;;13.58;nan
9277;BME280;4676;42.678;23.244;2022-12-11T05:34:35;92062.03;;;13.58;nan
9277;BME280;4676;42.678;23.244;2022-12-11T05:37:01;92045.75;;;13.61;nan
9277;BME280;4676;42.678;23.244;2022-12-11T05:39:28;92052.31;;;13.63;nan
9277;BME280;4676;42.678;23.244;2022-12-11T05:41:55;92046.56;;;13.71;nan
9277;BME280;4676;42.678;23.244;2022-12-11T05:44:23;92046.69;;;13.69;nan
9277;BME280;4676;42.678;23.244;2022-12-11T05:46:50;92036.09;;;13.64;nan
9277;BME280;4676;42.678;23.244;2022-12-11T05:49:16;92045.75;;;13.61;nan
9277;BME280;4676;42.678;23.244;2022-12-11T05:51:43;92035.13;;;13.56;nan
9277;BME280;4676;42.678;23.244;2022-12-11T05:54:10;92031.66;;;13.57;nan
9277;BME280;4676;42.678;23.244;2022-12-11T05:56:36;92032.31;;;13.59;nan
9277;BME280;4676;42.678;23.244;2022-12-11T05:59:05;92049.22;;;13.60;nan
9277;BME280;4676;42.678;23.244;2022-12-11T06:01:35;92040.13;;;13.67;nan
9277;BME280;4676;42.678;23.244;2022-12-11T06:04:03;92027.94;;;13.70;nan
9277;BME280;4676;42.678;23.244;2022-12-11T06:06:32;92038.66;;;13.74;nan
9277;BME280;4676;42.678;23.244;2022-12-11T06:08:59;92028.09;;;13.78;nan
9277;BME280;4676;42.678;23.244;2022-12-11T06:11:28;92024.59;;;13.79;nan
9277;BME280;4676;42.678;23.244;2022-12-11T06:13:55;92034.28;;;13.85;nan
9277;BME280;4676;42.678;23.244;2022-12-11T06:16:22;92021.69;;;13.93;nan
9277;BME280;4676;42.678;23.244;2022-12-11T06:18:51;92056.94;;;13.98;nan
9277;BME280;4676;42.678;23.244;2022-12-11T06:21:19;92054.13;;;14.01;nan
9277;BME280;4676;42.678;23.244;2022-12-11T06:23:49;92052.00;;;14.06;nan
9277;BME280;4676;42.678;23.244;2022-12-11T06:26:17;92052.66;;;13.98;nan
9277;BME280;4676;42.678;23.244;2022-12-11T06:28:44;92045.00;;;13.89;nan
9277;BME280;4676;42.678;23.244;2022-12-11T06:31:12;92058.66;;;13.88;nan
9277;BME280;4676;42.678;23.244;2022-12-11T06:33:39;92075.50;;;13.79;nan
9277;BME280;4676;42.678;23.244;2022-12-11T06:36:09;92070.56;;;13.78;nan
9277;BME280;4676;42.678;23.244;2022-12-11T06:38:37;92065.34;;;13.79;nan
9277;BME280;4676;42.678;23.244;2022-12-11T06:41:05;92094.03;;;13.81;nan
9277;BME280;4676;42.678;23.244;2022-12-11T06:43:34;92070.97;;;13.83;nan
9277;BME280;4676;42.678;23.244;2022-12-11T06:46:02;92091.09;;;13.86;nan
9277;BME280;4676;42.678;23.244;2022-12-11T06:48:29;92090.69;;;13.90;nan
9277;BME280;4676;42.678;23.244;2022-12-11T06:50:56;92096.34;;;13.94;nan
9277;BME280;4676;42.678;23.244;2022-12-11T06:53:24;92088.84;;;13.92;nan
9277;BME280;4676;42.678;23.244;2022-12-11T06:55:51;92085.75;;;13.89;nan
9277;BME280;4676;42.678;23.244;2022-12-11T06:58:17;92084.94;;;13.88;nan
9277;BME280;4676;42.678;23.244;2022-12-11T07:00:44;92094.97;;;13.90;nan
9277;BME280;4676;42.678;23.244;2022-12-11T07:03:11;92071.53;;;13.86;nan
9277;BME280;4676;42.678;23.244;2022-12-11T07:05:38;92085.59;;;13.90;nan
9277;BME280;4676;42.678;23.244;2022-12-11T07:08:04;92087.88;;;13.93;nan
9277;BME280;4676;42.678;23.244;2022-12-11T07:10:33;92096.22;;;13.95;nan
9277;BME280;4676;42.678;23.244;2022-12-11T07:12:59;92094.47;;;13.96;nan
9277;BME280;4676;42.678;23.244;2022-12-11T07:15:26;92086.56;;;13.99;nan
9277;BME280;4676;42.678;23.244;2022-12-11T07:17:53;92085.38;;;14.03;nan
9277;BME280;4676;42.678;23.244;2022-12-11T07:20:19;92105.22;;;13.99;nan
9277;BME280;4676;42.678;23.244;2022-12-11T07:22:46;92096.63;;;14.00;nan
9277;BME280;4676;42.678;23.244;2022-12-11T07:25:13;92101.31;;;14.05;nan
9277;BME280;4676;42.678;23.244;2022-12-11T07:27:41;92102.03;;;14.07;nan
9277;BME280;4676;42.678;23.244;2022-12-11T07:30:09;92112.75;;;14.11;nan
9277;BME280;4676;42.678;23.244;2022-12-11T07:32:36;92118.50;;;14.13;nan
9277;BME280;4676;42.678;23.244;2022-12-11T07:35:03;92133.78;;;14.13;nan
9277;BME280;4676;42.678;23.244;2022-12-11T07:37:30;92137.81;;;14.15;nan
9277;BME280;4676;42.678;23.244;2022-12-11T07:39:57;92139.97;;;14.10;nan
9277;BME280;4676;42.678;23.244;2022-12-11T07:42:24;92130.44;;;14.12;nan
9277;BME280;4676;42.678;23.244;2022-12-11T07:44:52;92146.69;;;14.21;nan
9277;BME280;4676;42.678;23.244;2022-12-11T07:47:18;92142.81;;;14.26;nan
9277;BME280;4676;42.678;23.244;2022-12-11T07:49:45;92158.25;;;14.25;nan
9277;BME280;4676;42.678;23.244;2022-12-11T07:52:13;92160.59;;;14.47;nan
9277;BME280;4676;42.678;23.244;2022-12-11T07:54:40;92161.81;;;14.53;nan
9277;BME280;4676;42.678;23.244;2022-12-11T07:57:06;92163.69;;;14.60;nan
9277;BME280;4676;42.678;23.244;2022-12-11T07:59:33;92162.75;;;14.61;nan
9277;BME280;4676;42.678;23.244;2022-12-11T08:02:01;92143.97;;;14.62;nan
9277;BME280;4676;42.678;23.244;2022-12-11T08:04:28;92162.47;;;14.64;nan
9277;BME280;4676;42.678;23.244;2022-12-11T08:06:54;92160.63;;;14.66;nan
9277;BME280;4676;42.678;23.244;2022-12-11T08:09:21;92174.31;;;14.65;nan
9277;BME280;4676;42.678;23.244;2022-12-11T08:11:48;92170.00;;;14.75;nan
9277;BME280;4676;42.678;23.244;2022-12-11T08:14:15;92183.69;;;14.74;nan
9277;BME280;4676;42.678;23.244;2022-12-11T08:16:42;92180.88;;;14.68;nan
9277;BME280;4676;42.678;23.244;2022-12-11T08:19:11;92180.47;;;14.72;nan
9277;BME280;4676;42.678;23.244;2022-12-11T08:21:39;92208.97;;;14.87;nan
9277;BME280;4676;42.678;23.244;2022-12-11T08:24:07;92190.84;;;14.80;nan
9277;BME280;4676;42.678;23.244;2022-12-11T08:26:34;92203.16;;;14.85;nan
9277;BME280;4676;42.678;23.244;2022-12-11T08:29:01;92187.88;;;14.85;nan
9277;BME280;4676;42.678;23.244;2022-12-11T08:31:28;92196.88;;;14.89;nan
9277;BME280;4676;42.678;23.244;2022-12-11T08:33:55;92188.00;;;14.83;nan
9277;BME280;4676;42.678;23.244;2022-12-11T08:36:24;92176.88;;;14.84;nan
9277;BME280;4676;42.678;23.244;2022-12-11T08:38:52;92204.41;;;14.81;nan
9277;BME280;4676;42.678;23.244;2022-12-11T08:41:21;92212.59;;;14.84;nan
9277;BME280;4676;42.678;23.244;2022-12-11T08:43:48;92192.56;;;14.70;nan
9277;BME280;4676;42.678;23.244;2022-12-11T08:46:17;92204.09;;;14.65;nan
9277;BME280;4676;42.678;23.244;2022-12-11T08:48:43;92202.59;;;14.62;nan
9277;BME280;4676;42.678;23.244;2022-12-11T08:51:12;92206.06;;;14.42;nan
9277;BME280;4676;42.678;23.244;2022-12-11T08:53:41;92201.47;;;14.36;nan
9277;BME280;4676;42.678;23.244;2022-12-11T08:56:10;92200.69;;;14.35;nan
9277;BME280;4676;42.678;23.244;2022-12-11T08:58:37;92195.22;;;14.29;nan
9277;BME280;4676;42.678;23.244;2022-12-11T09:01:07;92186.66;;;14.20;nan
9277;BME280;4676;42.678;23.244;2022-12-11T09:03:34;92178.31;;;14.18;nan
9277;BME280;4676;42.678;23.244;2022-12-11T09:06:04;92184.38;;;14.27;nan
9277;BME280;4676;42.678;23.244;2022-12-11T09:08:31;92184.31;;;14.38;nan
9277;BME280;4676;42.678;23.244;2022-12-11T09:11:03;92183.78;;;14.44;nan
9277;BME280;4676;42.678;23.244;2022-12-11T09:13:30;92182.97;;;14.43;nan
9277;BME280;4676;42.678;23.244;2022-12-11T09:15:57;92176.31;;;14.52;nan
9277;BME280;4676;42.678;23.244;2022-12-11T09:18:24;92178.75;;;14.63;nan
9277;BME280;4676;42.678;23.244;2022-12-11T09:20:57;92186.66;;;14.89;nan
9277;BME280;4676;42.678;23.244;2022-12-11T09:23:24;92173.66;;;15.02;nan
9277;BME280;4676;42.678;23.244;2022-12-11T09:25:51;92175.53;;;15.19;nan
9277;BME280;4676;42.678;23.244;2022-12-11T09:28:19;92175.78;;;15.35;nan
9277;BME280;4676;42.678;23.244;2022-12-11T09:30:46;92180.09;;;15.44;nan
9277;BME280;4676;42.678;23.244;2022-12-11T09:33:12;92166.69;;;15.52;nan
9277;BME280;4676;42.678;23.244;2022-12-11T09:35:39;92153.19;;;15.59;nan
9277;BME280;4676;42.678;23.244;2022-12-11T09:38:06;92156.16;;;15.64;nan
9277;BME280;4676;42.678;23.244;2022-12-11T09:40:38;92161.22;;;15.74;nan
9277;BME280;4676;42.678;23.244;2022-12-11T09:43:16;92146.00;;;15.82;nan
9277;BME280;4676;42.678;23.244;2022-12-11T09:45:47;92157.03;;;15.82;nan
9277;BME280;4676;42.678;23.244;2022-12-11T09:48:17;92143.41;;;15.91;nan
9277;BME280;4676;42.678;23.244;2022-12-11T09:50:49;92146.50;;;15.95;nan
9277;BME280;4676;42.678;23.244;2022-12-11T09:53:22;92135.88;;;15.99;nan
9277;BME280;4676;42.678;23.244;2022-12-11T09:55:54;92135.28;;;16.06;nan
9277;BME280;4676;42.678;23.244;2022-12-11T09:58:26;92138.78;;;16.05;nan
9277;BME280;4676;42.678;23.244;2022-12-11T10:01:02;92126.16;;;16.03;nan
9277;BME280;4676;42.678;23.244;2022-12-11T10:03:42;92120.06;;;15.86;nan
9277;BME280;4676;42.678;23.244;2022-12-11T10:06:19;92123.50;;;15.95;nan
9277;BME280;4676;42.678;23.244;2022-12-11T10:08:52;92126.16;;;16.03;nan
9277;BME280;4676;42.678;23.244;2022-12-11T10:11:37;92130.53;;;15.93;nan
9277;BME280;4676;42.678;23.244;2022-12-11T10:14:13;92121.28;;;15.73;nan
9277;BME280;4676;42.678;23.244;2022-12-11T10:16:48;92142.44;;;15.65;nan
9277;BME280;4676;42.678;23.244;2022-12-11T10:19:18;92142.69;;;15.72;nan
9277;BME280;4676;42.678;23.244;2022-12-11T10:21:48;92136.09;;;15.69;nan
9277;BME280;4676;42.678;23.244;2022-12-11T10:24:20;92132.06;;;15.67;nan
9277;BME280;4676;42.678;23.244;2022-12-11T10:26:54;92147.28;;;15.68;nan
9277;BME280;4676;42.678;23.244;2022-12-11T10:29:22;92134.34;;;15.70;nan
9277;BME280;4676;42.678;23.244;2022-12-11T10:31:53;92137.34;;;15.65;nan
9277;BME280;4676;42.678;23.244;2022-12-11T10:34:27;92127.00;;;15.57;nan
9277;BME280;4676;42.678;23.244;2022-12-11T10:36:58;92121.63;;;15.60;nan
9277;BME280;4676;42.678;23.244;2022-12-11T10:39:25;92132.00;;;15.39;nan
9277;BME280;4676;42.678;23.244;2022-12-11T10:41:53;92120.16;;;15.38;nan
9277;BME280;4676;42.678;23.244;2022-12-11T10:44:21;92131.06;;;15.21;nan
9277;BME280;4676;42.678;23.244;2022-12-11T10:47:03;92129.47;;;15.20;nan
9277;BME280;4676;42.678;23.244;2022-12-11T10:49:32;92124.09;;;15.23;nan
9277;BME280;4676;42.678;23.244;2022-12-11T10:52:00;92115.22;;;15.18;nan
9277;BME280;4676;42.678;23.244;2022-12-11T10:54:31;92114.31;;;15.19;nan
9277;BME280;4676;42.678;23.244;2022-12-11T10:57:00;92091.19;;;15.20;nan
9277;BME280;4676;42.678;23.244;2022-12-11T10:59:33;92105.81;;;15.37;nan
9277;BME280;4676;42.678;23.244;2022-12-11T11:02:04;92105.78;;;15.47;nan
9277;BME280;4676;42.678;23.244;2022-12-11T11:04:34;92100.94;;;15.54;nan
9277;BME280;4676;42.678;23.244;2022-12-11T11:07:10;92101.88;;;15.53;nan
9277;BME280;4676;42.678;23.244;2022-12-11T11:09:38;92094.50;;;15.49;nan
9277;BME280;4676;42.678;23.244;2022-12-11T11:12:17;92096.78;;;15.43;nan
9277;BME280;4676;42.678;23.244;2022-12-11T11:14:44;92094.94;;;15.26;nan
9277;BME280;4676;42.678;23.244;2022-12-11T11:17:14;92098.72;;;15.22;nan
9277;BME280;4676;42.678;23.244;2022-12-11T11:19:45;92100.06;;;15.16;nan
9277;BME280;4676;42.678;23.244;2022-12-11T11:22:15;92100.75;;;15.09;nan
9277;BME280;4676;42.678;23.244;2022-12-11T11:24:44;92099.81;;;15.19;nan
9277;BME280;4676;42.678;23.244;2022-12-11T11:27:13;92091.63;;;15.16;nan
9277;BME280;4676;42.678;23.244;2022-12-11T11:29:45;92097.50;;;15.26;nan
9277;BME280;4676;42.678;23.244;2022-12-11T11:32:18;92097.91;;;15.21;nan
9277;BME280;4676;42.678;23.244;2022-12-11T11:34:46;92092.81;;;15.12;nan
9277;BME280;4676;42.678;23.244;2022-12-11T11:37:23;92099.38;;;15.24;nan
9277;BME280;4676;42.678;23.244;2022-12-11T11:39:52;92090.66;;;15.26;nan
9277;BME280;4676;42.678;23.244;2022-12-11T11:42:25;92079.09;;;15.22;nan
9277;BME280;4676;42.678;23.244;2022-12-11T11:45:02;92095.59;;;15.28;nan
9277;BME280;4676;42.678;23.244;2022-12-11T11:47:35;92090.50;;;15.28;nan
9277;BME280;4676;42.678;23.244;2022-12-11T11:50:07;92082.31;;;15.24;nan
9277;BME280;4676;42.678;23.244;2022-12-11T11:52:41;92076.03;;;15.19;nan
9277;BME280;4676;42.678;23.244;2022-12-11T11:55:14;92068.50;;;15.17;nan
9277;BME280;4676;42.678;23.244;2022-12-11T11:57:46;92075.78;;;15.12;nan
9277;BME280;4676;42.678;23.244;2022-12-11T12:00:18;92075.41;;;14.97;nan
9277;BME280;4676;42.678;23.244;2022-12-11T12:02:47;92073.13;;;14.94;nan
9277;BME280;4676;42.678;23.244;2022-12-11T12:05:17;92068.53;;;14.88;nan
9277;BME280;4676;42.678;23.244;2022-12-11T12:07:56;92076.47;;;14.76;nan
9277;BME280;4676;42.678;23.244;2022-12-11T12:10:30;92086.81;;;14.74;nan
9277;BME280;4676;42.678;23.244;2022-12-11T12:13:02;92091.53;;;14.60;nan
9277;BME280;4676;42.678;23.244;2022-12-11T12:15:38;92096.34;;;14.63;nan
9277;BME280;4676;42.678;23.244;2022-12-11T12:18:16;92100.50;;;14.54;nan
9277;BME280;4676;42.678;23.244;2022-12-11T12:20:50;92113.63;;;14.40;nan
9277;BME280;4676;42.678;23.244;2022-12-11T12:23:49;92100.50;;;14.35;nan
9277;BME280;4676;42.678;23.244;2022-12-11T12:26:25;92108.97;;;14.05;nan
9277;BME280;4676;42.678;23.244;2022-12-11T12:29:01;92089.56;;;13.13;nan
9277;BME280;4676;42.678;23.244;2022-12-11T12:31:43;92106.03;;;12.14;nan
9277;BME280;4676;42.678;23.244;2022-12-11T12:34:25;92107.22;;;11.21;nan
9277;BME280;4676;42.678;23.244;2022-12-11T12:37:01;92130.09;;;10.62;nan
9277;BME280;4676;42.678;23.244;2022-12-11T12:39:38;92132.28;;;9.95;nan
9277;BME280;4676;42.678;23.244;2022-12-11T12:42:14;92137.63;;;9.42;nan
9277;BME280;4676;42.678;23.244;2022-12-11T12:44:51;92140.16;;;8.91;nan
9277;BME280;4676;42.678;23.244;2022-12-11T12:47:24;92143.31;;;8.56;nan
9277;BME280;4676;42.678;23.244;2022-12-11T12:49:54;92161.72;;;8.31;nan
9277;BME280;4676;42.678;23.244;2022-12-11T12:52:26;92159.03;;;7.79;nan
9277;BME280;4676;42.678;23.244;2022-12-11T12:54:57;92173.56;;;7.47;nan
9277;BME280;4676;42.678;23.244;2022-12-11T12:57:45;57322.41;;;-142.38;100.00
9277;BME280;4676;42.678;23.244;2022-12-11T13:00:25;57322.41;;;-142.38;100.00
9277;BME280;4676;42.678;23.244;2022-12-11T13:02:52;57322.41;;;188.67;100.00
9277;BME280;4676;42.678;23.244;2022-12-11T13:05:24;57322.41;;;-142.38;100.00
9277;BME280;4676;42.678;23.244;2022-12-11T13:07:53;57322.41;;;-142.38;100.00
9277;BME280;4676;42.678;23.244;2022-12-11T13:10:24;57322.41;;;105.79;100.00
9277;BME280;4676;42.678;23.244;2022-12-11T13:12:51;57322.41;;;-142.38;100.00
9277;BME280;4676;42.678;23.244;2022-12-11T13:15:42;57322.41;;;-142.38;100.00
9277;BME280;4676;42.678;23.244;2022-12-11T13:18:33;57322.41;;;188.67;100.00
9277;BME280;4676;42.678;23.244;2022-12-11T13:21:02;57322.41;;;43.68;100.00
9277;BME280;4676;42.678;23.244;2022-12-11T13:23:30;57322.41;;;-142.38;100.00
9277;BME280;4676;42.678;23.244;2022-12-11T13:25:58;57322.41;;;-142.38;100.00
9277;BME280;4676;42.678;23.244;2022-12-11T13:28:29;57322.41;;;188.67;100.00
9277;BME280;4676;42.678;23.244;2022-12-11T13:31:06;57322.41;;;-142.38;100.00
9277;BME280;4676;42.678;23.244;2022-12-11T13:33:50;57322.41;;;64.38;100.00
9277;BME280;4676;42.678;23.244;2022-12-11T13:36:29;57322.41;;;-142.38;100.00
9277;BME280;4676;42.678;23.244;2022-12-11T13:39:00;57322.41;;;188.67;100.00
9277;BME280;4676;42.678;23.244;2022-12-11T13:41:28;57322.41;;;22.99;100.00
9277;BME280;4676;42.678;23.244;2022-12-11T13:43:56;57322.41;;;-142.38;100.00
9277;BME280;4676;42.678;23.244;2022-12-11T13:46:26;57322.41;;;-142.38;100.00